sensor_id;sensor_type;location;lat;lon;timestamp;temperature;humidity
67722;SHT31;58309;45.292;11.820;2024-01-16T00:01:19;-1.75;99.99
67722;SHT31;58309;45.292;11.820;2024-01-16T00:03:45;-1.75;99.99
67722;SHT31;58309;45.292;11.820;2024-01-16T00:06:10;-1.75;99.99
67722;SHT31;58309;45.292;11.820;2024-01-16T00:08:36;-1.78;99.99
67722;SHT31;58309;45.292;11.820;2024-01-16T00:11:02;-1.83;99.99
67722;SHT31;58309;45.292;11.820;2024-01-16T00:13:29;-1.85;99.99
67722;SHT31;58309;45.292;11.820;2024-01-16T00:15:55;-1.88;99.99
67722;SHT31;58309;45.292;11.820;2024-01-16T00:18:22;-1.88;99.99
67722;SHT31;58309;45.292;11.820;2024-01-16T00:20:47;-1.86;99.99
67722;SHT31;58309;45.292;11.820;2024-01-16T00:23:13;-1.79;99.99
67722;SHT31;58309;45.292;11.820;2024-01-16T00:25:38;-1.75;99.99
67722;SHT31;58309;45.292;11.820;2024-01-16T00:28:04;-1.70;99.99
67722;SHT31;58309;45.292;11.820;2024-01-16T00:30:29;-1.68;99.99
67722;SHT31;58309;45.292;11.820;2024-01-16T00:32:55;-1.71;99.99
67722;SHT31;58309;45.292;11.820;2024-01-16T00:35:20;-1.72;99.99
67722;SHT31;58309;45.292;11.820;2024-01-16T00:37:46;-1.78;99.99
67722;SHT31;58309;45.292;11.820;2024-01-16T00:40:11;-1.51;99.99
67722;SHT31;58309;45.292;11.820;2024-01-16T00:42:37;-1.31;99.99
67722;SHT31;58309;45.292;11.820;2024-01-16T00:45:03;-1.36;99.99
67722;SHT31;58309;45.292;11.820;2024-01-16T00:47:29;-1.44;99.99
67722;SHT31;58309;45.292;11.820;2024-01-16T00:49:55;-1.48;99.99
67722;SHT31;58309;45.292;11.820;2024-01-16T00:52:20;-1.50;99.99
67722;SHT31;58309;45.292;11.820;2024-01-16T00:54:46;-1.48;99.99
67722;SHT31;58309;45.292;11.820;2024-01-16T00:57:11;-1.52;99.99
67722;SHT31;58309;45.292;11.820;2024-01-16T00:59:37;-1.55;99.99
67722;SHT31;58309;45.292;11.820;2024-01-16T01:02:03;-1.54;99.99
67722;SHT31;58309;45.292;11.820;2024-01-16T01:04:29;-1.50;99.99
67722;SHT31;58309;45.292;11.820;2024-01-16T01:06:55;-1.43;99.99
67722;SHT31;58309;45.292;11.820;2024-01-16T01:09:20;-1.40;99.99
67722;SHT31;58309;45.292;11.820;2024-01-16T01:11:46;-1.48;99.99
67722;SHT31;58309;45.292;11.820;2024-01-16T01:14:11;-1.60;99.99
67722;SHT31;58309;45.292;11.820;2024-01-16T01:16:37;-1.68;99.99
67722;SHT31;58309;45.292;11.820;2024-01-16T01:19:02;-1.79;99.99
67722;SHT31;58309;45.292;11.820;2024-01-16T01:21:28;-1.78;99.99
67722;SHT31;58309;45.292;11.820;2024-01-16T01:23:54;-1.83;99.99
67722;SHT31;58309;45.292;11.820;2024-01-16T01:26:19;-1.92;99.99
67722;SHT31;58309;45.292;11.820;2024-01-16T01:28:45;-1.95;99.99
67722;SHT31;58309;45.292;11.820;2024-01-16T01:31:11;-1.95;99.99
67722;SHT31;58309;45.292;11.820;2024-01-16T01:33:37;-2.03;99.99
67722;SHT31;58309;45.292;11.820;2024-01-16T01:36:03;-2.03;99.99
67722;SHT31;58309;45.292;11.820;2024-01-16T01:38:28;-2.12;99.99
67722;SHT31;58309;45.292;11.820;2024-01-16T01:40:54;-2.14;99.99
67722;SHT31;58309;45.292;11.820;2024-01-16T01:43:24;-2.16;99.99
67722;SHT31;58309;45.292;11.820;2024-01-16T01:46:23;-2.12;99.99
67722;SHT31;58309;45.292;11.820;2024-01-16T01:48:49;-2.14;99.99
67722;SHT31;58309;45.292;11.820;2024-01-16T01:51:17;-2.20;99.99
67722;SHT31;58309;45.292;11.820;2024-01-16T01:53:44;-2.16;99.99
67722;SHT31;58309;45.292;11.820;2024-01-16T01:56:11;-2.16;99.99
67722;SHT31;58309;45.292;11.820;2024-01-16T01:58:39;-2.18;99.99
67722;SHT31;58309;45.292;11.820;2024-01-16T02:01:06;-1.99;99.99
67722;SHT31;58309;45.292;11.820;2024-01-16T02:03:44;-1.96;99.99
67722;SHT31;58309;45.292;11.820;2024-01-16T02:06:11;-1.93;99.99
67722;SHT31;58309;45.292;11.820;2024-01-16T02:08:39;-1.83;99.99
67722;SHT31;58309;45.292;11.820;2024-01-16T02:11:05;-1.82;99.99
67722;SHT31;58309;45.292;11.820;2024-01-16T02:13:31;-1.79;99.99
67722;SHT31;58309;45.292;11.820;2024-01-16T02:15:56;-1.62;99.99
67722;SHT31;58309;45.292;11.820;2024-01-16T02:18:22;-1.62;99.99
67722;SHT31;58309;45.292;11.820;2024-01-16T02:20:47;-1.54;99.99
67722;SHT31;58309;45.292;11.820;2024-01-16T02:23:27;-1.41;99.99
67722;SHT31;58309;45.292;11.820;2024-01-16T02:25:53;-1.31;99.99
67722;SHT31;58309;45.292;11.820;2024-01-16T02:28:19;-1.19;99.99
67722;SHT31;58309;45.292;11.820;2024-01-16T02:30:44;-0.89;99.99
67722;SHT31;58309;45.292;11.820;2024-01-16T02:33:10;-0.57;99.99
67722;SHT31;58309;45.292;11.820;2024-01-16T02:35:35;-0.55;99.99
67722;SHT31;58309;45.292;11.820;2024-01-16T02:38:01;-0.54;99.99
67722;SHT31;58309;45.292;11.820;2024-01-16T02:40:26;-0.51;99.99
67722;SHT31;58309;45.292;11.820;2024-01-16T02:42:52;-0.45;99.99
67722;SHT31;58309;45.292;11.820;2024-01-16T02:45:17;-0.38;99.99
67722;SHT31;58309;45.292;11.820;2024-01-16T02:47:43;-0.44;99.99
67722;SHT31;58309;45.292;11.820;2024-01-16T02:50:08;-0.44;99.99
67722;SHT31;58309;45.292;11.820;2024-01-16T02:52:37;-0.35;99.99
67722;SHT31;58309;45.292;11.820;2024-01-16T02:55:03;-0.30;99.99
67722;SHT31;58309;45.292;11.820;2024-01-16T02:57:30;-0.31;99.99
67722;SHT31;58309;45.292;11.820;2024-01-16T02:59:55;-0.41;99.99
67722;SHT31;58309;45.292;11.820;2024-01-16T03:02:21;-0.48;99.99
67722;SHT31;58309;45.292;11.820;2024-01-16T03:04:48;-0.54;99.99
67722;SHT31;58309;45.292;11.820;2024-01-16T03:07:13;-0.61;99.99
67722;SHT31;58309;45.292;11.820;2024-01-16T03:09:38;-0.79;99.99
67722;SHT31;58309;45.292;11.820;2024-01-16T03:12:05;-0.83;99.99
67722;SHT31;58309;45.292;11.820;2024-01-16T03:14:30;-0.86;99.99
67722;SHT31;58309;45.292;11.820;2024-01-16T03:17:03;-0.83;99.99
67722;SHT31;58309;45.292;11.820;2024-01-16T03:19:29;-0.75;99.99
67722;SHT31;58309;45.292;11.820;2024-01-16T03:21:55;-0.72;99.99
67722;SHT31;58309;45.292;11.820;2024-01-16T03:24:20;-0.69;99.99
67722;SHT31;58309;45.292;11.820;2024-01-16T03:26:46;-0.61;99.99
67722;SHT31;58309;45.292;11.820;2024-01-16T03:29:12;-0.47;99.99
67722;SHT31;58309;45.292;11.820;2024-01-16T03:31:37;-0.37;99.99
67722;SHT31;58309;45.292;11.820;2024-01-16T03:34:03;-0.38;99.99
67722;SHT31;58309;45.292;11.820;2024-01-16T03:36:28;-0.31;99.99
67722;SHT31;58309;45.292;11.820;2024-01-16T03:38:53;-0.35;99.99
67722;SHT31;58309;45.292;11.820;2024-01-16T03:41:19;-0.37;99.99
67722;SHT31;58309;45.292;11.820;2024-01-16T03:43:44;-0.37;99.99
67722;SHT31;58309;45.292;11.820;2024-01-16T03:46:11;-0.37;99.99
67722;SHT31;58309;45.292;11.820;2024-01-16T03:48:36;-0.25;99.99
67722;SHT31;58309;45.292;11.820;2024-01-16T03:51:02;-0.24;99.99
67722;SHT31;58309;45.292;11.820;2024-01-16T03:53:29;-0.39;99.99
67722;SHT31;58309;45.292;11.820;2024-01-16T03:55:54;-0.47;99.99
67722;SHT31;58309;45.292;11.820;2024-01-16T03:58:20;-0.51;99.99
67722;SHT31;58309;45.292;11.820;2024-01-16T04:00:45;-0.39;99.99
67722;SHT31;58309;45.292;11.820;2024-01-16T04:03:11;-0.37;99.99
67722;SHT31;58309;45.292;11.820;2024-01-16T04:05:38;-0.38;99.99
67722;SHT31;58309;45.292;11.820;2024-01-16T04:08:03;-0.35;99.99
67722;SHT31;58309;45.292;11.820;2024-01-16T04:10:29;-0.41;99.99
67722;SHT31;58309;45.292;11.820;2024-01-16T04:12:54;-0.32;99.99
67722;SHT31;58309;45.292;11.820;2024-01-16T04:15:20;-0.38;99.99
67722;SHT31;58309;45.292;11.820;2024-01-16T04:17:45;-0.35;99.99
67722;SHT31;58309;45.292;11.820;2024-01-16T04:20:11;-0.35;99.99
67722;SHT31;58309;45.292;11.820;2024-01-16T04:22:36;-0.31;99.99
67722;SHT31;58309;45.292;11.820;2024-01-16T04:25:02;-0.22;99.99
67722;SHT31;58309;45.292;11.820;2024-01-16T04:27:30;-0.15;99.99
67722;SHT31;58309;45.292;11.820;2024-01-16T04:29:56;-0.17;99.99
67722;SHT31;58309;45.292;11.820;2024-01-16T04:32:21;-0.08;99.99
67722;SHT31;58309;45.292;11.820;2024-01-16T04:34:47;-0.03;99.99
67722;SHT31;58309;45.292;11.820;2024-01-16T04:37:12;-0.08;99.99
67722;SHT31;58309;45.292;11.820;2024-01-16T04:39:38;-0.11;99.99
67722;SHT31;58309;45.292;11.820;2024-01-16T04:42:03;-0.14;99.99
67722;SHT31;58309;45.292;11.820;2024-01-16T04:44:29;-0.22;99.99
67722;SHT31;58309;45.292;11.820;2024-01-16T04:46:54;-0.30;99.99
67722;SHT31;58309;45.292;11.820;2024-01-16T04:49:20;-0.32;99.99
67722;SHT31;58309;45.292;11.820;2024-01-16T04:51:45;-0.32;99.99
67722;SHT31;58309;45.292;11.820;2024-01-16T04:54:12;-0.35;99.99
67722;SHT31;58309;45.292;11.820;2024-01-16T04:56:37;-0.15;99.99
67722;SHT31;58309;45.292;11.820;2024-01-16T04:59:03;-0.11;99.99
67722;SHT31;58309;45.292;11.820;2024-01-16T05:01:28;-0.14;99.99
67722;SHT31;58309;45.292;11.820;2024-01-16T05:03:54;-0.04;99.99
67722;SHT31;58309;45.292;11.820;2024-01-16T05:06:20;-0.13;99.99
67722;SHT31;58309;45.292;11.820;2024-01-16T05:08:45;-0.07;99.99
67722;SHT31;58309;45.292;11.820;2024-01-16T05:11:11;-0.04;99.99
67722;SHT31;58309;45.292;11.820;2024-01-16T05:13:37;0.01;99.99
67722;SHT31;58309;45.292;11.820;2024-01-16T05:16:03;0.11;99.99
67722;SHT31;58309;45.292;11.820;2024-01-16T05:18:28;-0.01;99.99
67722;SHT31;58309;45.292;11.820;2024-01-16T05:20:54;-0.07;99.99
67722;SHT31;58309;45.292;11.820;2024-01-16T05:23:21;-0.18;99.99
67722;SHT31;58309;45.292;11.820;2024-01-16T05:25:47;-0.21;99.99
67722;SHT31;58309;45.292;11.820;2024-01-16T05:28:12;-0.11;99.99
67722;SHT31;58309;45.292;11.820;2024-01-16T05:30:37;-0.10;99.99
67722;SHT31;58309;45.292;11.820;2024-01-16T05:33:03;-0.20;99.99
67722;SHT31;58309;45.292;11.820;2024-01-16T05:35:28;-0.18;99.99
67722;SHT31;58309;45.292;11.820;2024-01-16T05:37:54;-0.06;99.99
67722;SHT31;58309;45.292;11.820;2024-01-16T05:40:21;-0.10;99.99
67722;SHT31;58309;45.292;11.820;2024-01-16T05:42:48;-0.13;99.99
67722;SHT31;58309;45.292;11.820;2024-01-16T05:45:14;-0.11;99.99
67722;SHT31;58309;45.292;11.820;2024-01-16T05:47:39;-0.20;99.99
67722;SHT31;58309;45.292;11.820;2024-01-16T05:50:05;-0.20;99.99
67722;SHT31;58309;45.292;11.820;2024-01-16T05:52:31;-0.04;99.99
67722;SHT31;58309;45.292;11.820;2024-01-16T05:54:57;0.01;99.99
67722;SHT31;58309;45.292;11.820;2024-01-16T05:57:25;0.17;99.99
67722;SHT31;58309;45.292;11.820;2024-01-16T05:59:50;0.30;99.99
67722;SHT31;58309;45.292;11.820;2024-01-16T06:02:16;0.41;99.90
67722;SHT31;58309;45.292;11.820;2024-01-16T06:04:41;0.52;98.89
67722;SHT31;58309;45.292;11.820;2024-01-16T06:07:06;0.50;99.22
67722;SHT31;58309;45.292;11.820;2024-01-16T06:09:33;0.41;99.40
67722;SHT31;58309;45.292;11.820;2024-01-16T06:11:58;0.44;99.12
67722;SHT31;58309;45.292;11.820;2024-01-16T06:14:24;0.41;98.97
67722;SHT31;58309;45.292;11.820;2024-01-16T06:16:50;0.54;98.87
67722;SHT31;58309;45.292;11.820;2024-01-16T06:19:16;0.75;97.87
67722;SHT31;58309;45.292;11.820;2024-01-16T06:21:42;0.71;97.71
67722;SHT31;58309;45.292;11.820;2024-01-16T06:24:08;0.68;97.95
67722;SHT31;58309;45.292;11.820;2024-01-16T06:26:33;0.66;97.62
67722;SHT31;58309;45.292;11.820;2024-01-16T06:28:59;0.60;97.89
67722;SHT31;58309;45.292;11.820;2024-01-16T06:31:24;0.66;97.91
67722;SHT31;58309;45.292;11.820;2024-01-16T06:33:51;0.65;97.59
67722;SHT31;58309;45.292;11.820;2024-01-16T06:36:17;0.66;97.48
67722;SHT31;58309;45.292;11.820;2024-01-16T06:38:43;0.51;97.80
67722;SHT31;58309;45.292;11.820;2024-01-16T06:41:08;0.55;97.79
67722;SHT31;58309;45.292;11.820;2024-01-16T06:43:34;0.58;97.91
67722;SHT31;58309;45.292;11.820;2024-01-16T06:45:59;0.65;97.19
67722;SHT31;58309;45.292;11.820;2024-01-16T06:48:25;0.60;97.58
67722;SHT31;58309;45.292;11.820;2024-01-16T06:50:51;0.55;98.03
67722;SHT31;58309;45.292;11.820;2024-01-16T06:53:16;0.48;97.92
67722;SHT31;58309;45.292;11.820;2024-01-16T06:55:42;0.42;98.35
67722;SHT31;58309;45.292;11.820;2024-01-16T06:58:07;0.47;98.12
67722;SHT31;58309;45.292;11.820;2024-01-16T07:00:34;0.42;98.42
67722;SHT31;58309;45.292;11.820;2024-01-16T07:03:00;0.37;98.60
67722;SHT31;58309;45.292;11.820;2024-01-16T07:05:25;0.44;98.53
67722;SHT31;58309;45.292;11.820;2024-01-16T07:07:51;0.50;98.64
67722;SHT31;58309;45.292;11.820;2024-01-16T07:10:16;0.62;97.66
67722;SHT31;58309;45.292;11.820;2024-01-16T07:12:47;0.69;97.39
67722;SHT31;58309;45.292;11.820;2024-01-16T07:15:14;0.83;96.80
67722;SHT31;58309;45.292;11.820;2024-01-16T07:17:40;0.82;97.12
67722;SHT31;58309;45.292;11.820;2024-01-16T07:20:06;0.88;96.66
67722;SHT31;58309;45.292;11.820;2024-01-16T07:22:33;0.95;96.65
67722;SHT31;58309;45.292;11.820;2024-01-16T07:24:59;0.93;96.69
67722;SHT31;58309;45.292;11.820;2024-01-16T07:27:25;1.10;95.95
67722;SHT31;58309;45.292;11.820;2024-01-16T07:29:51;1.15;95.66
67722;SHT31;58309;45.292;11.820;2024-01-16T07:32:16;1.16;96.20
67722;SHT31;58309;45.292;11.820;2024-01-16T07:34:42;1.22;95.83
67722;SHT31;58309;45.292;11.820;2024-01-16T07:37:07;1.30;95.51
67722;SHT31;58309;45.292;11.820;2024-01-16T07:39:33;1.42;95.49
67722;SHT31;58309;45.292;11.820;2024-01-16T07:41:58;1.57;94.70
67722;SHT31;58309;45.292;11.820;2024-01-16T07:44:24;1.77;93.89
67722;SHT31;58309;45.292;11.820;2024-01-16T07:46:49;1.85;93.71
67722;SHT31;58309;45.292;11.820;2024-01-16T07:49:15;1.97;93.08
67722;SHT31;58309;45.292;11.820;2024-01-16T07:51:41;2.08;92.47
67722;SHT31;58309;45.292;11.820;2024-01-16T07:54:10;2.15;92.57
67722;SHT31;58309;45.292;11.820;2024-01-16T07:56:36;2.19;92.09
67722;SHT31;58309;45.292;11.820;2024-01-16T07:59:03;2.21;91.86
67722;SHT31;58309;45.292;11.820;2024-01-16T08:01:28;2.22;91.59
67722;SHT31;58309;45.292;11.820;2024-01-16T08:03:57;2.28;91.14
67722;SHT31;58309;45.292;11.820;2024-01-16T08:06:23;2.21;91.92
67722;SHT31;58309;45.292;11.820;2024-01-16T08:08:49;2.23;91.39
67722;SHT31;58309;45.292;11.820;2024-01-16T08:11:15;2.28;91.63
67722;SHT31;58309;45.292;11.820;2024-01-16T08:13:41;2.40;91.08
67722;SHT31;58309;45.292;11.820;2024-01-16T08:16:07;2.44;91.19
67722;SHT31;58309;45.292;11.820;2024-01-16T08:18:33;2.46;90.84
67722;SHT31;58309;45.292;11.820;2024-01-16T08:20:59;2.43;90.80
67722;SHT31;58309;45.292;11.820;2024-01-16T08:23:24;2.46;90.91
67722;SHT31;58309;45.292;11.820;2024-01-16T08:25:50;2.53;90.47
67722;SHT31;58309;45.292;11.820;2024-01-16T08:28:17;3.05;90.05
67722;SHT31;58309;45.292;11.820;2024-01-16T08:30:43;3.24;89.15
67722;SHT31;58309;45.292;11.820;2024-01-16T08:33:08;3.24;89.80
67722;SHT31;58309;45.292;11.820;2024-01-16T08:35:33;3.55;88.00
67722;SHT31;58309;45.292;11.820;2024-01-16T08:37:59;3.53;87.50
67722;SHT31;58309;45.292;11.820;2024-01-16T08:40:24;3.53;87.53
67722;SHT31;58309;45.292;11.820;2024-01-16T08:42:50;3.39;87.83
67722;SHT31;58309;45.292;11.820;2024-01-16T08:45:20;3.28;87.83
67722;SHT31;58309;45.292;11.820;2024-01-16T08:47:46;3.24;88.33
67722;SHT31;58309;45.292;11.820;2024-01-16T08:50:11;3.26;88.63
67722;SHT31;58309;45.292;11.820;2024-01-16T08:52:37;3.36;88.43
67722;SHT31;58309;45.292;11.820;2024-01-16T08:55:02;3.42;88.13
67722;SHT31;58309;45.292;11.820;2024-01-16T08:57:29;3.49;88.37
67722;SHT31;58309;45.292;11.820;2024-01-16T08:59:54;3.48;88.29
67722;SHT31;58309;45.292;11.820;2024-01-16T09:02:20;3.48;88.71
67722;SHT31;58309;45.292;11.820;2024-01-16T09:04:45;3.63;88.40
67722;SHT31;58309;45.292;11.820;2024-01-16T09:07:12;4.00;88.00
67722;SHT31;58309;45.292;11.820;2024-01-16T09:09:41;4.86;85.27
67722;SHT31;58309;45.292;11.820;2024-01-16T09:12:10;5.55;82.73
67722;SHT31;58309;45.292;11.820;2024-01-16T09:14:35;5.91;81.16
67722;SHT31;58309;45.292;11.820;2024-01-16T09:17:01;6.09;80.36
67722;SHT31;58309;45.292;11.820;2024-01-16T09:19:28;5.91;79.90
67722;SHT31;58309;45.292;11.820;2024-01-16T09:21:55;5.85;80.17
67722;SHT31;58309;45.292;11.820;2024-01-16T09:24:20;6.58;79.13
67722;SHT31;58309;45.292;11.820;2024-01-16T09:26:46;7.04;76.41
67722;SHT31;58309;45.292;11.820;2024-01-16T09:29:11;7.35;76.73
67722;SHT31;58309;45.292;11.820;2024-01-16T09:31:37;7.28;75.88
67722;SHT31;58309;45.292;11.820;2024-01-16T09:34:03;7.62;75.01
67722;SHT31;58309;45.292;11.820;2024-01-16T09:36:29;8.00;73.74
67722;SHT31;58309;45.292;11.820;2024-01-16T09:38:54;8.39;72.95
67722;SHT31;58309;45.292;11.820;2024-01-16T09:41:20;8.76;71.54
67722;SHT31;58309;45.292;11.820;2024-01-16T09:43:47;8.27;72.42
67722;SHT31;58309;45.292;11.820;2024-01-16T09:46:15;8.15;73.41
67722;SHT31;58309;45.292;11.820;2024-01-16T09:48:41;7.59;75.39
67722;SHT31;58309;45.292;11.820;2024-01-16T09:51:10;7.95;75.45
67722;SHT31;58309;45.292;11.820;2024-01-16T09:53:41;7.90;75.03
67722;SHT31;58309;45.292;11.820;2024-01-16T09:56:13;7.87;75.13
67722;SHT31;58309;45.292;11.820;2024-01-16T09:58:40;8.32;75.52
67722;SHT31;58309;45.292;11.820;2024-01-16T10:01:06;9.27;72.88
67722;SHT31;58309;45.292;11.820;2024-01-16T10:03:34;9.38;70.37
67722;SHT31;58309;45.292;11.820;2024-01-16T10:06:03;8.59;70.67
67722;SHT31;58309;45.292;11.820;2024-01-16T10:08:30;9.06;71.20
67722;SHT31;58309;45.292;11.820;2024-01-16T10:10:57;8.94;69.47
67722;SHT31;58309;45.292;11.820;2024-01-16T10:13:22;8.86;70.34
67722;SHT31;58309;45.292;11.820;2024-01-16T10:15:51;8.99;69.64
67722;SHT31;58309;45.292;11.820;2024-01-16T10:18:26;8.82;71.07
67722;SHT31;58309;45.292;11.820;2024-01-16T10:20:52;9.42;69.49
67722;SHT31;58309;45.292;11.820;2024-01-16T10:23:29;9.41;68.98
67722;SHT31;58309;45.292;11.820;2024-01-16T10:26:24;9.42;68.03
67722;SHT31;58309;45.292;11.820;2024-01-16T10:28:50;9.91;68.11
67722;SHT31;58309;45.292;11.820;2024-01-16T10:31:16;9.72;67.93
67722;SHT31;58309;45.292;11.820;2024-01-16T10:33:42;9.30;67.73
67722;SHT31;58309;45.292;11.820;2024-01-16T10:36:11;8.83;70.77
67722;SHT31;58309;45.292;11.820;2024-01-16T10:38:44;9.33;70.50
67722;SHT31;58309;45.292;11.820;2024-01-16T10:41:16;8.92;69.60
67722;SHT31;58309;45.292;11.820;2024-01-16T10:43:43;9.03;70.63
67722;SHT31;58309;45.292;11.820;2024-01-16T10:46:13;8.83;71.31
67722;SHT31;58309;45.292;11.820;2024-01-16T10:48:41;8.55;71.78
67722;SHT31;58309;45.292;11.820;2024-01-16T10:51:07;8.07;72.87
67722;SHT31;58309;45.292;11.820;2024-01-16T10:53:34;7.97;72.89
67722;SHT31;58309;45.292;11.820;2024-01-16T10:56:01;7.77;72.53
67722;SHT31;58309;45.292;11.820;2024-01-16T10:58:30;7.59;72.90
67722;SHT31;58309;45.292;11.820;2024-01-16T11:00:57;7.40;73.88
67722;SHT31;58309;45.292;11.820;2024-01-16T11:03:49;7.12;74.18
67722;SHT31;58309;45.292;11.820;2024-01-16T11:06:16;7.35;75.17
67722;SHT31;58309;45.292;11.820;2024-01-16T11:08:42;7.33;73.81
67722;SHT31;58309;45.292;11.820;2024-01-16T11:11:10;7.35;73.77
67722;SHT31;58309;45.292;11.820;2024-01-16T11:13:36;7.77;73.26
67722;SHT31;58309;45.292;11.820;2024-01-16T11:16:02;7.60;72.79
67722;SHT31;58309;45.292;11.820;2024-01-16T11:18:31;7.66;73.56
67722;SHT31;58309;45.292;11.820;2024-01-16T11:20:58;7.74;73.97
67722;SHT31;58309;45.292;11.820;2024-01-16T11:23:24;7.69;73.17
67722;SHT31;58309;45.292;11.820;2024-01-16T11:25:50;7.32;73.18
67722;SHT31;58309;45.292;11.820;2024-01-16T11:28:15;7.12;73.52
67722;SHT31;58309;45.292;11.820;2024-01-16T11:30:41;7.12;73.46
67722;SHT31;58309;45.292;11.820;2024-01-16T11:33:41;7.14;74.03
67722;SHT31;58309;45.292;11.820;2024-01-16T11:39:21;7.25;73.64
67722;SHT31;58309;45.292;11.820;2024-01-16T11:44:36;6.90;75.93
67722;SHT31;58309;45.292;11.820;2024-01-16T11:47:03;6.84;75.13
67722;SHT31;58309;45.292;11.820;2024-01-16T11:49:28;6.99;75.51
67722;SHT31;58309;45.292;11.820;2024-01-16T11:51:57;7.16;75.27
67722;SHT31;58309;45.292;11.820;2024-01-16T11:54:22;7.16;74.79
67722;SHT31;58309;45.292;11.820;2024-01-16T11:57:06;7.36;75.19
67722;SHT31;58309;45.292;11.820;2024-01-16T12:02:12;7.66;73.59
67722;SHT31;58309;45.292;11.820;2024-01-16T12:04:38;7.90;72.98
67722;SHT31;58309;45.292;11.820;2024-01-16T12:07:03;8.39;73.41
67722;SHT31;58309;45.292;11.820;2024-01-16T12:09:29;8.76;71.83
67722;SHT31;58309;45.292;11.820;2024-01-16T12:12:00;8.69;70.86
67722;SHT31;58309;45.292;11.820;2024-01-16T12:14:29;9.06;71.53
67722;SHT31;58309;45.292;11.820;2024-01-16T12:17:11;9.34;70.43
67722;SHT31;58309;45.292;11.820;2024-01-16T12:19:36;8.77;70.14
67722;SHT31;58309;45.292;11.820;2024-01-16T12:22:02;8.58;70.34
67722;SHT31;58309;45.292;11.820;2024-01-16T12:24:28;8.59;71.98
67722;SHT31;58309;45.292;11.820;2024-01-16T12:26:57;8.48;70.84
67722;SHT31;58309;45.292;11.820;2024-01-16T12:29:23;8.44;72.32
67722;SHT31;58309;45.292;11.820;2024-01-16T12:31:48;8.37;71.06
67722;SHT31;58309;45.292;11.820;2024-01-16T12:34:14;8.42;71.22
67722;SHT31;58309;45.292;11.820;2024-01-16T12:36:39;8.41;71.67
67722;SHT31;58309;45.292;11.820;2024-01-16T12:39:05;8.37;70.62
67722;SHT31;58309;45.292;11.820;2024-01-16T12:41:34;7.94;69.54
67722;SHT31;58309;45.292;11.820;2024-01-16T12:44:02;7.91;71.58
67722;SHT31;58309;45.292;11.820;2024-01-16T12:46:27;7.97;72.35
67722;SHT31;58309;45.292;11.820;2024-01-16T12:49:00;7.98;71.29
67722;SHT31;58309;45.292;11.820;2024-01-16T12:51:26;8.14;72.28
67722;SHT31;58309;45.292;11.820;2024-01-16T12:53:51;8.15;70.91
67722;SHT31;58309;45.292;11.820;2024-01-16T12:56:20;8.24;71.54
67722;SHT31;58309;45.292;11.820;2024-01-16T12:58:46;8.39;71.61
67722;SHT31;58309;45.292;11.820;2024-01-16T13:01:23;8.14;70.64
67722;SHT31;58309;45.292;11.820;2024-01-16T13:03:49;8.00;70.04
67722;SHT31;58309;45.292;11.820;2024-01-16T13:06:22;8.00;72.41
67722;SHT31;58309;45.292;11.820;2024-01-16T13:08:51;7.91;71.62
67722;SHT31;58309;45.292;11.820;2024-01-16T13:11:29;7.84;72.22
67722;SHT31;58309;45.292;11.820;2024-01-16T13:14:01;7.84;72.02
67722;SHT31;58309;45.292;11.820;2024-01-16T13:16:29;7.87;71.61
67722;SHT31;58309;45.292;11.820;2024-01-16T13:19:01;7.83;71.46
67722;SHT31;58309;45.292;11.820;2024-01-16T13:21:34;7.93;71.73
67722;SHT31;58309;45.292;11.820;2024-01-16T13:23:59;8.04;73.00
67722;SHT31;58309;45.292;11.820;2024-01-16T13:26:24;8.07;72.20
67722;SHT31;58309;45.292;11.820;2024-01-16T13:28:50;8.07;71.70
67722;SHT31;58309;45.292;11.820;2024-01-16T13:31:15;8.31;72.86
67722;SHT31;58309;45.292;11.820;2024-01-16T13:33:41;8.39;70.86
67722;SHT31;58309;45.292;11.820;2024-01-16T13:36:08;8.22;70.69
67722;SHT31;58309;45.292;11.820;2024-01-16T13:38:34;8.46;72.43
67722;SHT31;58309;45.292;11.820;2024-01-16T13:40:59;8.61;70.70
67722;SHT31;58309;45.292;11.820;2024-01-16T13:43:25;8.76;71.60
67722;SHT31;58309;45.292;11.820;2024-01-16T13:45:51;8.92;70.53
67722;SHT31;58309;45.292;11.820;2024-01-16T13:48:17;9.20;70.02
67722;SHT31;58309;45.292;11.820;2024-01-16T13:50:43;9.34;69.95
67722;SHT31;58309;45.292;11.820;2024-01-16T13:53:10;9.58;68.92
67722;SHT31;58309;45.292;11.820;2024-01-16T13:55:38;9.44;69.18
67722;SHT31;58309;45.292;11.820;2024-01-16T13:58:04;9.37;69.43
67722;SHT31;58309;45.292;11.820;2024-01-16T14:00:29;9.47;69.01
67722;SHT31;58309;45.292;11.820;2024-01-16T14:02:55;9.40;68.13
67722;SHT31;58309;45.292;11.820;2024-01-16T14:05:24;9.30;67.90
67722;SHT31;58309;45.292;11.820;2024-01-16T14:07:51;9.28;69.32
67722;SHT31;58309;45.292;11.820;2024-01-16T14:10:18;8.96;69.10
67722;SHT31;58309;45.292;11.820;2024-01-16T14:12:45;8.92;69.46
67722;SHT31;58309;45.292;11.820;2024-01-16T14:15:12;8.96;69.79
67722;SHT31;58309;45.292;11.820;2024-01-16T14:17:42;8.82;69.36
67722;SHT31;58309;45.292;11.820;2024-01-16T14:20:10;8.69;70.66
67722;SHT31;58309;45.292;11.820;2024-01-16T14:22:36;8.75;70.75
67722;SHT31;58309;45.292;11.820;2024-01-16T14:25:03;8.59;69.44
67722;SHT31;58309;45.292;11.820;2024-01-16T14:30:05;8.46;70.77
67722;SHT31;58309;45.292;11.820;2024-01-16T14:32:32;8.38;70.12
67722;SHT31;58309;45.292;11.820;2024-01-16T14:34:58;8.35;69.97
67722;SHT31;58309;45.292;11.820;2024-01-16T14:37:23;8.28;70.33
67722;SHT31;58309;45.292;11.820;2024-01-16T14:39:49;8.20;70.76
67722;SHT31;58309;45.292;11.820;2024-01-16T14:42:14;8.12;70.71
67722;SHT31;58309;45.292;11.820;2024-01-16T14:44:40;8.11;70.97
67722;SHT31;58309;45.292;11.820;2024-01-16T14:47:05;8.12;72.58
67722;SHT31;58309;45.292;11.820;2024-01-16T14:49:31;8.11;73.40
67722;SHT31;58309;45.292;11.820;2024-01-16T14:51:57;8.04;72.41
67722;SHT31;58309;45.292;11.820;2024-01-16T14:54:26;7.97;72.31
67722;SHT31;58309;45.292;11.820;2024-01-16T14:56:52;7.95;72.57
67722;SHT31;58309;45.292;11.820;2024-01-16T14:59:17;7.90;73.34
67722;SHT31;58309;45.292;11.820;2024-01-16T15:01:44;7.86;73.25
67722;SHT31;58309;45.292;11.820;2024-01-16T15:04:09;7.79;74.29
67722;SHT31;58309;45.292;11.820;2024-01-16T15:06:35;7.73;74.72
67722;SHT31;58309;45.292;11.820;2024-01-16T15:09:00;7.63;74.57
67722;SHT31;58309;45.292;11.820;2024-01-16T15:11:26;7.62;74.45
67722;SHT31;58309;45.292;11.820;2024-01-16T15:13:51;7.52;74.64
67722;SHT31;58309;45.292;11.820;2024-01-16T15:16:17;7.43;75.28
67722;SHT31;58309;45.292;11.820;2024-01-16T15:18:43;7.33;73.81
67722;SHT31;58309;45.292;11.820;2024-01-16T15:21:09;7.30;73.46
67722;SHT31;58309;45.292;11.820;2024-01-16T15:23:35;7.18;73.93
67722;SHT31;58309;45.292;11.820;2024-01-16T15:26:01;7.14;73.95
67722;SHT31;58309;45.292;11.820;2024-01-16T15:28:28;7.12;74.83
67722;SHT31;58309;45.292;11.820;2024-01-16T15:30:54;7.05;73.98
67722;SHT31;58309;45.292;11.820;2024-01-16T15:33:19;7.08;74.39